This is the latest recevied weather packets stored in our database for station/object KD2ZLA. If no packets are shown the sender has not sent any weather packets the latest 1 day(s).
| Time | Temp. | Humidity | Pressure | Rain* | Wind** | Luminosity | Snow |
|---|---|---|---|---|---|---|---|
| 1778031720 | 8.89° C | 93% | 1008.9 hPa | 3.05 mm | - | 0 W/m² | - |
| 1778031418 | 8.89° C | 93% | 1009.1 hPa | 2.29 mm | - | 0 W/m² | - |
| 1778031115 | 9.44° C | 93% | 1008.9 hPa | 2.29 mm | - | 0 W/m² | - |
| 1778030811 | 9.44° C | 93% | 1008.8 hPa | 2.29 mm | - | 0 W/m² | - |
| 1778030508 | 9.44° C | 92% | 1008.7 hPa | 1.78 mm | - | 0 W/m² | - |
| 1778030205 | 9.44° C | 92% | 1008.7 hPa | 1.78 mm | - | 0 W/m² | - |
| 1778029600 | 9.44° C | 92% | 1008.4 hPa | 2.29 mm | - | 0 W/m² | - |
| 1778029297 | 9.44° C | 91% | 1008.7 hPa | 1.78 mm | - | 0 W/m² | - |
| 1778028994 | 10° C | 91% | 1008.5 hPa | 1.27 mm | - | 0 W/m² | - |
| 1778028387 | 10° C | 89% | 1008.1 hPa | 1.78 mm | - | 0 W/m² | - |
| 1778028084 | 10° C | 89% | 1008.2 hPa | 2.29 mm | - | 0 W/m² | - |
| 1778027780 | 10° C | 88% | 1008.1 hPa | 2.29 mm | - | 0 W/m² | - |
| 1778025657 | 11.67° C | 77% | 1007.5 hPa | 3.05 mm | - | 1 W/m² | - |
| 1778025355 | 12.22° C | 72% | 1007.3 hPa | 1.78 mm | - | 1 W/m² | - |
| 1778024445 | 13.89° C | 63% | 1006.6 hPa | 0.51 mm | - | 2 W/m² | - |
| 1778024143 | 13.89° C | 62% | 1006.5 hPa | 0 mm | - | 2 W/m² | - |
| 1778023538 | 14.44° C | 64% | 1006.1 hPa | 0 mm | - | 2 W/m² | - |
| 1778022024 | 15.56° C | 58% | 1005.4 hPa | 0 mm | - | 7 W/m² | - |
| 1778021721 | 15.56° C | 57% | 1005.1 hPa | 0 mm | - | 14 W/m² | - |
| 1778021114 | 15.56° C | 59% | 1005 hPa | 0 mm | - | 22 W/m² | - |
| 1778019901 | 16.11° C | 57% | 1004.8 hPa | 0 mm | - | 40 W/m² | - |
| 1778019294 | 16.67° C | 57% | 1004.8 hPa | 0 mm | - | 77 W/m² | - |
| 1778018688 | 16.67° C | 58% | 1004.7 hPa | 0 mm | - | 31 W/m² | - |
| 1778017781 | 17.22° C | 60% | 1004 hPa | 0 mm | - | 58 W/m² | - |
| 1778017176 | 18.33° C | 61% | 1003.6 hPa | 0 mm | - | 125 W/m² | - |
* Rain latest hour (hover to see other rain measurements)
** Current wind speed in m/s (hover to see current wind gust speed)